Time;durP1;ratioP1;P1;durP2;ratioP2;P2;SDS_P1;SDS_P2;PMS_P1;PMS_P2;Temp;Humidity;BMP_temperature;BMP_pressure;BME280_temperature;BME280_humidity;BME280_pressure;Samples;Min_cycle;Max_cycle;Signal;HPM_P1;HPM_P2
2023/03/12 00:00:07;;;;;;;2.53;2.13;;;;;;;;;;2080209;28;20022;-78
2023/03/12 00:01:28;;;;;;;4.53;2.08;;;;;;;;;;2072208;28;20105;-78
2023/03/12 00:02:50;;;;;;;4.18;1.85;;;;;;;;;;2079735;28;20022;-78
2023/03/12 00:04:09;;;;;;;2.28;1.92;;;;;;;;;;2080306;28;20021;-78
2023/03/12 00:05:28;;;;;;;3.13;2.08;;;;;;;;;;2075273;28;20029;-77
2023/03/12 00:06:49;;;;;;;2.85;2.30;;;;;;;;;;2077270;28;20021;-77
2023/03/12 00:08:08;;;;;;;2.30;2.10;;;;;;;;;;2080497;28;20026;-78
2023/03/12 00:09:28;;;;;;;2.50;2.30;;;;;;;;;;2082023;28;20021;-78
2023/03/12 00:10:46;;;;;;;2.75;2.20;;;;;;;;;;2082475;28;20018;-78
2023/03/12 00:12:06;;;;;;;3.13;2.35;;;;;;;;;;2081536;28;20021;-79
2023/03/12 00:13:27;;;;;;;3.85;1.90;;;;;;;;;;2082626;28;20013;-78
2023/03/12 00:14:46;;;;;;;2.92;2.05;;;;;;;;;;2081545;28;20034;-78
2023/03/12 00:16:06;;;;;;;2.40;1.98;;;;;;;;;;2074638;28;20399;-78
2023/03/12 00:17:25;;;;;;;2.60;2.05;;;;;;;;;;2069857;28;20038;-78
2023/03/12 00:18:46;;;;;;;4.47;2.05;;;;;;;;;;2077696;28;20025;-79
2023/03/12 00:20:06;;;;;;;2.90;1.83;;;;;;;;;;2072768;28;20030;-78
2023/03/12 00:21:25;;;;;;;4.25;2.67;;;;;;;;;;2075654;28;20602;-79
2023/03/12 00:22:45;;;;;;;2.90;2.60;;;;;;;;;;2077128;28;20025;-79
2023/03/12 00:24:04;;;;;;;3.30;2.38;;;;;;;;;;2075571;28;20038;-79
2023/03/12 00:25:23;;;;;;;2.17;1.98;;;;;;;;;;2072502;28;20030;-79
2023/03/12 00:26:42;;;;;;;2.67;2.30;;;;;;;;;;2074559;28;20034;-79
2023/03/12 00:28:01;;;;;;;1.98;1.85;;;;;;;;;;2072643;28;20030;-79
2023/03/12 00:29:23;;;;;;;2.75;2.33;;;;;;;;;;2079337;28;20018;-79
2023/03/12 00:30:42;;;;;;;3.83;2.20;;;;;;;;;;2068669;28;20018;-79
2023/03/12 00:32:01;;;;;;;3.72;2.25;;;;;;;;;;2070967;28;20102;-79
2023/03/12 00:33:20;;;;;;;2.63;2.42;;;;;;;;;;2078863;28;20030;-80
2023/03/12 00:34:39;;;;;;;2.25;2.10;;;;;;;;;;2083388;28;20026;-79
2023/03/12 00:35:59;;;;;;;4.10;2.53;;;;;;;;;;2075338;28;20041;-79
2023/03/12 00:37:18;;;;;;;3.00;2.70;;;;;;;;;;2083106;28;20029;-79
2023/03/12 00:38:37;;;;;;;2.75;2.50;;;;;;;;;;2082979;28;20105;-80
2023/03/12 00:39:56;;;;;;;2.28;1.90;;;;;;;;;;2084428;28;20029;-81
2023/03/12 00:41:15;;;;;;;2.47;1.98;;;;;;;;;;2088119;28;20017;-80
2023/03/12 00:42:34;;;;;;;2.85;2.35;;;;;;;;;;2089193;28;20097;-80
2023/03/12 00:43:53;;;;;;;3.80;1.98;;;;;;;;;;2080584;28;20045;-80
2023/03/12 00:45:12;;;;;;;2.70;1.88;;;;;;;;;;2086966;28;20029;-79
2023/03/12 00:46:31;;;;;;;3.58;1.77;;;;;;;;;;2083747;28;20025;-79
2023/03/12 00:47:50;;;;;;;3.22;2.35;;;;;;;;;;2086020;28;20033;-79
2023/03/12 00:49:10;;;;;;;2.55;2.03;;;;;;;;;;2087364;28;20026;-79
2023/03/12 00:50:29;;;;;;;3.25;2.40;;;;;;;;;;2079916;28;20018;-78
2023/03/12 00:51:48;;;;;;;3.75;2.30;;;;;;;;;;2084600;28;20048;-79
2023/03/12 00:53:07;;;;;;;3.30;2.00;;;;;;;;;;2083952;28;20045;-79
2023/03/12 00:54:26;;;;;;;2.92;2.63;;;;;;;;;;2082079;28;20022;-80
2023/03/12 00:55:45;;;;;;;4.50;2.35;;;;;;;;;;2084406;28;20089;-80
2023/03/12 00:57:04;;;;;;;3.63;2.15;;;;;;;;;;2085552;28;20029;-80
2023/03/12 00:58:23;;;;;;;5.47;2.70;;;;;;;;;;2085063;28;20025;-79
2023/03/12 00:59:42;;;;;;;3.33;2.17;;;;;;;;;;2083698;28;20018;-79
2023/03/12 01:01:01;;;;;;;3.22;2.50;;;;;;;;;;2081975;28;20026;-78
2023/03/12 01:02:21;;;;;;;4.05;2.50;;;;;;;;;;2077611;28;20042;-78
2023/03/12 01:03:40;;;;;;;3.10;2.42;;;;;;;;;;2074603;28;20021;-79
2023/03/12 01:04:59;;;;;;;3.00;2.33;;;;;;;;;;2075613;28;20026;-79
2023/03/12 01:06:21;;;;;;;4.03;1.92;;;;;;;;;;2077748;28;20065;-79
2023/03/12 01:07:40;;;;;;;5.18;2.50;;;;;;;;;;2074066;28;20021;-79
2023/03/12 01:09:00;;;;;;;2.38;2.10;;;;;;;;;;2077142;28;20025;-79
2023/03/12 01:10:20;;;;;;;2.28;1.90;;;;;;;;;;2080234;28;20033;-79
2023/03/12 01:11:39;;;;;;;2.35;1.88;;;;;;;;;;2083148;28;20029;-79
2023/03/12 01:12:58;;;;;;;2.85;1.73;;;;;;;;;;2073780;28;20034;-79
2023/03/12 01:14:17;;;;;;;3.83;2.20;;;;;;;;;;2078742;28;20043;-79
2023/03/12 01:15:36;;;;;;;1.98;1.70;;;;;;;;;;2078602;28;20030;-78
2023/03/12 01:16:55;;;;;;;2.75;2.45;;;;;;;;;;2073073;28;20038;-77
2023/03/12 01:18:14;;;;;;;2.28;1.95;;;;;;;;;;2078820;28;20033;-79
2023/03/12 01:19:33;;;;;;;2.72;2.05;;;;;;;;;;2080585;28;20096;-78
2023/03/12 01:20:52;;;;;;;2.35;2.17;;;;;;;;;;2079824;28;20026;-79
2023/03/12 01:22:11;;;;;;;2.58;1.65;;;;;;;;;;2081172;28;20030;-79
2023/03/12 01:23:30;;;;;;;3.10;2.13;;;;;;;;;;2080534;28;20030;-79
2023/03/12 01:24:49;;;;;;;5.38;2.10;;;;;;;;;;2074071;28;20034;-79
2023/03/12 01:26:08;;;;;;;2.75;2.35;;;;;;;;;;2078013;28;20482;-78
2023/03/12 01:27:27;;;;;;;3.85;2.10;;;;;;;;;;2081293;28;20125;-79
2023/03/12 01:28:46;;;;;;;2.00;1.80;;;;;;;;;;2073664;28;20026;-78
2023/03/12 01:30:06;;;;;;;2.28;2.10;;;;;;;;;;2078632;28;20053;-79
2023/03/12 01:31:25;;;;;;;2.65;2.03;;;;;;;;;;2073700;28;20061;-78
2023/03/12 01:32:45;;;;;;;2.88;2.15;;;;;;;;;;2077124;28;20045;-78
2023/03/12 01:34:04;;;;;;;2.35;2.03;;;;;;;;;;2080629;28;20072;-78
2023/03/12 01:35:24;;;;;;;2.15;1.98;;;;;;;;;;2074238;28;20030;-78
2023/03/12 01:36:43;;;;;;;4.88;1.92;;;;;;;;;;2070864;28;20416;-78
2023/03/12 01:38:02;;;;;;;3.15;1.83;;;;;;;;;;2071956;28;20022;-78
2023/03/12 01:39:21;;;;;;;2.38;2.00;;;;;;;;;;2077018;28;20061;-78
2023/03/12 01:40:41;;;;;;;2.17;2.03;;;;;;;;;;2073196;28;20017;-78
2023/03/12 01:42:00;;;;;;;3.88;2.00;;;;;;;;;;2067909;28;20674;-77
2023/03/12 01:43:24;;;;;;;2.17;1.98;;;;;;;;;;2069872;28;20021;-80
2023/03/12 01:44:51;;;;;;;2.15;1.88;;;;;;;;;;2075234;28;20903;-78
2023/03/12 01:46:28;;;;;;;4.30;2.15;;;;;;;;;;2076780;28;20018;-78
2023/03/12 01:47:48;;;;;;;2.78;1.92;;;;;;;;;;2081194;28;20402;-78
2023/03/12 01:49:12;;;;;;;2.92;2.00;;;;;;;;;;2079687;28;20112;-79
2023/03/12 01:50:31;;;;;;;3.70;2.00;;;;;;;;;;2069807;28;20030;-78
2023/03/12 01:52:14;;;;;;;2.05;1.90;;;;;;;;;;2074802;28;20387;-79
2023/03/12 01:53:33;;;;;;;4.28;1.98;;;;;;;;;;2073219;28;20483;-78
2023/03/12 01:55:00;;;;;;;4.25;2.28;;;;;;;;;;2072626;28;20068;-79
2023/03/12 01:56:20;;;;;;;2.67;2.10;;;;;;;;;;2080113;28;20037;-79
2023/03/12 01:57:51;;;;;;;6.38;2.20;;;;;;;;;;2080305;28;20022;-79
2023/03/12 01:59:14;;;;;;;3.75;2.15;;;;;;;;;;2080632;28;20046;-78
2023/03/12 02:00:33;;;;;;;4.60;2.20;;;;;;;;;;2078065;28;20033;-78
2023/03/12 02:01:52;;;;;;;3.03;2.42;;;;;;;;;;2073272;28;20026;-79
2023/03/12 02:03:12;;;;;;;2.65;2.28;;;;;;;;;;2073758;28;20112;-78
2023/03/12 02:04:32;;;;;;;4.72;2.58;;;;;;;;;;2075817;28;20029;-78
2023/03/12 02:05:59;;;;;;;2.47;1.95;;;;;;;;;;2078168;28;20347;-80
2023/03/12 02:07:18;;;;;;;2.30;2.10;;;;;;;;;;2074616;28;20109;-78
2023/03/12 02:08:40;;;;;;;2.28;2.08;;;;;;;;;;2071405;28;20479;-78
2023/03/12 02:09:59;;;;;;;2.40;2.20;;;;;;;;;;2072040;28;20034;-79
2023/03/12 02:11:18;;;;;;;2.60;2.22;;;;;;;;;;2070090;28;20310;-78
2023/03/12 02:12:37;;;;;;;2.38;2.17;;;;;;;;;;2073722;28;20069;-79
2023/03/12 02:13:56;;;;;;;2.97;2.45;;;;;;;;;;2076479;28;20056;-78
2023/03/12 02:15:15;;;;;;;3.20;2.33;;;;;;;;;;2073059;28;20121;-78
2023/03/12 02:16:35;;;;;;;3.03;2.67;;;;;;;;;;2075260;28;20037;-79
2023/03/12 02:17:54;;;;;;;2.50;2.30;;;;;;;;;;2078725;28;20025;-79
2023/03/12 02:19:25;;;;;;;2.50;2.30;;;;;;;;;;2080016;28;20021;-77
2023/03/12 02:21:02;;;;;;;4.70;2.42;;;;;;;;;;2080707;28;20038;-78
2023/03/12 02:22:22;;;;;;;2.53;2.33;;;;;;;;;;2070637;28;20022;-78
2023/03/12 02:24:04;;;;;;;2.78;2.33;;;;;;;;;;2076221;28;20025;-78
2023/03/12 02:25:35;;;;;;;4.78;2.58;;;;;;;;;;2078966;28;20399;-78
2023/03/12 02:26:54;;;;;;;3.05;2.30;;;;;;;;;;2072237;28;20042;-78
2023/03/12 02:28:14;;;;;;;3.45;2.95;;;;;;;;;;2070851;28;20466;-78
2023/03/12 02:29:34;;;;;;;2.35;2.15;;;;;;;;;;2069221;28;20033;-77
2023/03/12 02:30:56;;;;;;;2.97;2.08;;;;;;;;;;2077725;28;20065;-77
2023/03/12 02:32:35;;;;;;;2.60;2.22;;;;;;;;;;2079876;28;20061;-79
2023/03/12 02:33:54;;;;;;;2.70;1.90;;;;;;;;;;2071822;28;20084;-79
2023/03/12 02:35:15;;;;;;;2.25;2.05;;;;;;;;;;2078055;28;20033;-78
2023/03/12 02:36:34;;;;;;;4.25;2.35;;;;;;;;;;2079190;28;20041;-78
2023/03/12 02:37:54;;;;;;;7.25;2.50;;;;;;;;;;2079816;28;20482;-78
2023/03/12 02:39:14;;;;;;;3.60;2.13;;;;;;;;;;2078234;28;20025;-78
2023/03/12 02:40:38;;;;;;;4.38;2.55;;;;;;;;;;2071500;28;20449;-80
2023/03/12 02:41:58;;;;;;;3.67;2.13;;;;;;;;;;2076314;28;20029;-79
2023/03/12 02:43:18;;;;;;;2.75;2.28;;;;;;;;;;2080653;28;20061;-78
2023/03/12 02:44:37;;;;;;;3.22;2.00;;;;;;;;;;2071170;28;20033;-79
2023/03/12 02:45:56;;;;;;;2.45;2.25;;;;;;;;;;2069857;28;20030;-78
2023/03/12 02:47:14;;;;;;;4.20;2.40;;;;;;;;;;2070457;28;20026;-80
2023/03/12 02:48:34;;;;;;;3.67;2.13;;;;;;;;;;2077026;28;20037;-78
2023/03/12 02:49:53;;;;;;;3.63;2.58;;;;;;;;;;2077330;28;20502;-78
2023/03/12 02:51:12;;;;;;;3.25;2.42;;;;;;;;;;2080620;28;20068;-78
2023/03/12 02:52:34;;;;;;;5.03;2.58;;;;;;;;;;2080937;28;20025;-78
2023/03/12 02:53:53;;;;;;;5.78;2.22;;;;;;;;;;2078478;28;20033;-79
2023/03/12 02:55:12;;;;;;;2.85;2.30;;;;;;;;;;2079390;28;20057;-78
2023/03/12 02:56:32;;;;;;;3.70;2.35;;;;;;;;;;2079199;28;20033;-77
2023/03/12 02:57:51;;;;;;;3.00;2.60;;;;;;;;;;2077624;28;20128;-78
2023/03/12 02:59:12;;;;;;;4.88;2.75;;;;;;;;;;2072588;28;20030;-78
2023/03/12 03:00:31;;;;;;;2.95;2.55;;;;;;;;;;2064342;28;20049;-78
2023/03/12 03:01:54;;;;;;;2.33;2.05;;;;;;;;;;2072599;28;20026;-78
2023/03/12 03:03:13;;;;;;;3.53;2.13;;;;;;;;;;2079618;28;20148;-78
2023/03/12 03:04:33;;;;;;;3.35;2.22;;;;;;;;;;2067339;28;20038;-78
2023/03/12 03:05:53;;;;;;;2.20;2.00;;;;;;;;;;2066339;28;20030;-78
2023/03/12 03:07:13;;;;;;;5.28;2.75;;;;;;;;;;2076944;28;20114;-78
2023/03/12 03:08:33;;;;;;;3.63;2.38;;;;;;;;;;2080534;28;20041;-78
2023/03/12 03:09:52;;;;;;;5.13;2.85;;;;;;;;;;2072674;28;20716;-77
2023/03/12 03:11:11;;;;;;;2.70;2.30;;;;;;;;;;2078429;28;20033;-78
2023/03/12 03:12:31;;;;;;;2.65;2.25;;;;;;;;;;2077219;28;20826;-80
2023/03/12 03:13:50;;;;;;;2.65;2.15;;;;;;;;;;2076010;28;20156;-80
2023/03/12 03:15:10;;;;;;;2.38;1.85;;;;;;;;;;2073338;28;20065;-79
2023/03/12 03:16:29;;;;;;;2.78;2.42;;;;;;;;;;2076188;28;20021;-79
2023/03/12 03:17:48;;;;;;;2.97;1.98;;;;;;;;;;2070216;28;20022;-79
2023/03/12 03:19:07;;;;;;;4.60;2.80;;;;;;;;;;2070809;28;20022;-79
2023/03/12 03:20:26;;;;;;;2.35;2.15;;;;;;;;;;2079477;28;20053;-79
2023/03/12 03:21:45;;;;;;;7.60;2.10;;;;;;;;;;2078699;28;20017;-79
2023/03/12 03:23:04;;;;;;;2.80;2.13;;;;;;;;;;2071205;28;20034;-78
2023/03/12 03:24:24;;;;;;;2.22;1.70;;;;;;;;;;2069927;28;20034;-79
2023/03/12 03:25:42;;;;;;;3.13;2.28;;;;;;;;;;2069163;28;20022;-79
2023/03/12 03:27:01;;;;;;;3.03;1.80;;;;;;;;;;2078719;28;20021;-77
2023/03/12 03:28:22;;;;;;;2.63;2.38;;;;;;;;;;2080291;28;20029;-79
2023/03/12 03:29:43;;;;;;;2.65;1.80;;;;;;;;;;2078462;28;20025;-77
2023/03/12 03:31:03;;;;;;;2.17;1.98;;;;;;;;;;2081292;28;20120;-78
2023/03/12 03:32:22;;;;;;;3.28;2.28;;;;;;;;;;2072906;28;20038;-78
2023/03/12 03:33:41;;;;;;;3.03;2.40;;;;;;;;;;2077826;28;20033;-79
2023/03/12 03:35:00;;;;;;;2.05;1.38;;;;;;;;;;2072956;28;20037;-77
2023/03/12 03:36:19;;;;;;;4.10;2.00;;;;;;;;;;2076833;28;20022;-78
2023/03/12 03:37:38;;;;;;;5.10;2.20;;;;;;;;;;2078321;28;20478;-78
2023/03/12 03:38:57;;;;;;;3.40;2.08;;;;;;;;;;2074401;28;20029;-79
2023/03/12 03:40:17;;;;;;;3.38;2.13;;;;;;;;;;2077506;28;20026;-77
2023/03/12 03:41:36;;;;;;;2.38;2.17;;;;;;;;;;2080907;28;20025;-77
2023/03/12 03:42:55;;;;;;;3.45;1.90;;;;;;;;;;2079275;28;20184;-78
2023/03/12 03:44:14;;;;;;;4.70;2.42;;;;;;;;;;2070976;28;20038;-78
2023/03/12 03:45:34;;;;;;;2.28;1.95;;;;;;;;;;2076495;28;20498;-78
2023/03/12 03:46:54;;;;;;;2.20;1.95;;;;;;;;;;2076150;28;20030;-78
2023/03/12 03:48:13;;;;;;;2.05;1.80;;;;;;;;;;2072433;28;20069;-78
2023/03/12 03:49:32;;;;;;;3.50;1.90;;;;;;;;;;2077540;28;20491;-78
2023/03/12 03:50:51;;;;;;;4.20;1.80;;;;;;;;;;2080611;28;20034;-78
2023/03/12 03:52:10;;;;;;;4.75;2.03;;;;;;;;;;2081551;28;20025;-78
2023/03/12 03:53:29;;;;;;;3.90;2.17;;;;;;;;;;2081362;28;20478;-78
2023/03/12 03:54:48;;;;;;;4.80;1.90;;;;;;;;;;2078602;28;20435;-79
2023/03/12 03:56:08;;;;;;;2.17;1.70;;;;;;;;;;2072018;28;20030;-78
2023/03/12 03:57:28;;;;;;;1.88;1.77;;;;;;;;;;2078244;28;20168;-79
2023/03/12 03:58:47;;;;;;;4.32;1.65;;;;;;;;;;2076624;28;20022;-79
2023/03/12 04:00:08;;;;;;;2.75;1.75;;;;;;;;;;2076825;28;20025;-79
2023/03/12 04:01:28;;;;;;;1.90;1.70;;;;;;;;;;2074524;28;20844;-79
2023/03/12 04:02:47;;;;;;;2.28;2.00;;;;;;;;;;2066161;28;20035;-79
2023/03/12 04:04:06;;;;;;;1.80;1.58;;;;;;;;;;2078395;28;20044;-79
2023/03/12 04:05:24;;;;;;;4.25;1.88;;;;;;;;;;2081047;28;20490;-78
2023/03/12 04:06:43;;;;;;;2.10;1.90;;;;;;;;;;2078689;28;20961;-79
2023/03/12 04:08:02;;;;;;;7.38;2.35;;;;;;;;;;2080808;28;20025;-79
2023/03/12 04:09:21;;;;;;;2.47;1.95;;;;;;;;;;2079815;28;20080;-79
2023/03/12 04:10:40;;;;;;;3.30;1.88;;;;;;;;;;2073940;28;20066;-79
2023/03/12 04:11:59;;;;;;;1.77;1.67;;;;;;;;;;2078496;28;20029;-79
2023/03/12 04:13:18;;;;;;;3.38;1.65;;;;;;;;;;2072407;28;20042;-78
2023/03/12 04:14:38;;;;;;;3.63;2.38;;;;;;;;;;2079254;28;20105;-78
2023/03/12 04:15:58;;;;;;;2.45;2.00;;;;;;;;;;2073659;28;20112;-78
2023/03/12 04:17:16;;;;;;;3.97;2.00;;;;;;;;;;2070822;28;20022;-78
2023/03/12 04:18:35;;;;;;;2.45;2.20;;;;;;;;;;2078407;28;20029;-78
2023/03/12 04:19:55;;;;;;;1.98;1.88;;;;;;;;;;2071038;28;20026;-78
2023/03/12 04:21:14;;;;;;;4.20;2.10;;;;;;;;;;2069791;28;20526;-81
2023/03/12 04:22:33;;;;;;;2.75;1.75;;;;;;;;;;2078671;28;20453;-79
2023/03/12 04:23:55;;;;;;;3.40;2.15;;;;;;;;;;2081386;28;20037;-78
2023/03/12 04:25:13;;;;;;;2.05;1.88;;;;;;;;;;2077004;28;20474;-78
2023/03/12 04:26:32;;;;;;;3.38;1.98;;;;;;;;;;2079602;28;20425;-78
2023/03/12 04:27:51;;;;;;;2.28;2.08;;;;;;;;;;2075167;28;20483;-77
2023/03/12 04:29:10;;;;;;;2.92;1.90;;;;;;;;;;2078217;28;20037;-77
2023/03/12 04:30:29;;;;;;;3.58;1.63;;;;;;;;;;2077609;28;20112;-77
2023/03/12 04:31:48;;;;;;;3.95;2.08;;;;;;;;;;2081713;28;20057;-77
2023/03/12 04:33:07;;;;;;;4.85;2.03;;;;;;;;;;2074873;28;20037;-77
2023/03/12 04:34:26;;;;;;;3.67;2.00;;;;;;;;;;2077327;28;20026;-78
2023/03/12 04:35:52;;;;;;;5.07;1.92;;;;;;;;;;2073928;28;20022;-78
2023/03/12 04:37:14;;;;;;;2.30;1.88;;;;;;;;;;2072462;28;20038;-78
2023/03/12 04:38:33;;;;;;;2.40;2.20;;;;;;;;;;2076921;28;20399;-77
2023/03/12 04:39:52;;;;;;;6.10;2.47;;;;;;;;;;2079634;28;20045;-78
2023/03/12 04:41:11;;;;;;;5.18;2.00;;;;;;;;;;2080646;28;20373;-77
2023/03/12 04:42:31;;;;;;;3.58;1.70;;;;;;;;;;2079907;28;20026;-78
2023/03/12 04:43:50;;;;;;;4.45;1.88;;;;;;;;;;2081069;28;20025;-78
2023/03/12 04:45:09;;;;;;;2.10;1.73;;;;;;;;;;2078814;28;20025;-77
2023/03/12 04:46:28;;;;;;;4.53;2.28;;;;;;;;;;2081158;28;20026;-78
2023/03/12 04:47:47;;;;;;;3.05;2.08;;;;;;;;;;2080033;28;20033;-78
2023/03/12 04:49:06;;;;;;;5.80;2.00;;;;;;;;;;2075481;28;20506;-75
2023/03/12 04:50:25;;;;;;;2.30;2.10;;;;;;;;;;2080340;28;20108;-78
2023/03/12 04:51:44;;;;;;;3.75;2.10;;;;;;;;;;2071824;28;20034;-78
2023/03/12 04:53:03;;;;;;;4.05;2.10;;;;;;;;;;2078913;28;20060;-78
2023/03/12 04:54:22;;;;;;;6.22;1.95;;;;;;;;;;2081736;28;20041;-77
2023/03/12 04:55:41;;;;;;;4.05;1.85;;;;;;;;;;2081196;28;20080;-77
2023/03/12 04:57:00;;;;;;;3.40;1.95;;;;;;;;;;2081513;28;20018;-78
2023/03/12 04:58:20;;;;;;;2.80;2.20;;;;;;;;;;2072376;28;20905;-78
2023/03/12 04:59:38;;;;;;;1.92;1.75;;;;;;;;;;2078099;28;20858;-78
2023/03/12 05:00:57;;;;;;;3.10;2.10;;;;;;;;;;2075978;28;20022;-78
2023/03/12 05:02:18;;;;;;;2.90;2.20;;;;;;;;;;2082158;28;20587;-79
2023/03/12 05:03:37;;;;;;;5.80;2.05;;;;;;;;;;2083881;28;20010;-78
2023/03/12 05:04:56;;;;;;;3.25;1.83;;;;;;;;;;2087140;28;20029;-80
2023/03/12 05:06:16;;;;;;;6.10;2.40;;;;;;;;;;2093157;28;20038;-79
2023/03/12 05:07:35;;;;;;;6.35;2.20;;;;;;;;;;2083813;28;20030;-79
2023/03/12 05:08:54;;;;;;;4.47;2.10;;;;;;;;;;2085963;28;20033;-78
2023/03/12 05:10:13;;;;;;;4.07;2.15;;;;;;;;;;2088120;28;20474;-80
2023/03/12 05:11:32;;;;;;;2.28;1.90;;;;;;;;;;2088711;28;20033;-81
2023/03/12 05:12:51;;;;;;;2.25;1.92;;;;;;;;;;2082363;28;20062;-79
2023/03/12 05:14:12;;;;;;;4.97;2.00;;;;;;;;;;2080129;28;20029;-80
2023/03/12 05:15:30;;;;;;;3.72;1.92;;;;;;;;;;2075220;28;20340;-79
2023/03/12 05:16:50;;;;;;;2.47;2.28;;;;;;;;;;2071770;28;20038;-80
2023/03/12 05:18:10;;;;;;;2.47;1.77;;;;;;;;;;2073907;28;20030;-80
2023/03/12 05:19:29;;;;;;;3.70;1.77;;;;;;;;;;2078936;28;20030;-79
2023/03/12 05:20:58;;;;;;;2.92;1.90;;;;;;;;;;2076672;28;20037;-80
2023/03/12 05:22:17;;;;;;;2.75;1.83;;;;;;;;;;2078694;28;20029;-84
2023/03/12 05:23:38;;;;;;;5.15;1.92;;;;;;;;;;2081065;28;20029;-80
2023/03/12 05:24:57;;;;;;;3.78;1.75;;;;;;;;;;2072139;28;20062;-80
2023/03/12 05:26:21;;;;;;;2.55;2.10;;;;;;;;;;2069523;28;20042;-79
2023/03/12 05:27:40;;;;;;;2.53;2.00;;;;;;;;;;2075291;28;20029;-80
2023/03/12 05:29:00;;;;;;;1.98;1.73;;;;;;;;;;2071063;28;20037;-81
2023/03/12 05:30:18;;;;;;;2.33;1.80;;;;;;;;;;2076989;28;20093;-81
2023/03/12 05:31:37;;;;;;;3.13;1.98;;;;;;;;;;2074350;28;20022;-80
2023/03/12 05:32:56;;;;;;;2.17;1.92;;;;;;;;;;2069618;28;20043;-79
2023/03/12 05:34:15;;;;;;;3.10;2.10;;;;;;;;;;2067507;28;20086;-80
2023/03/12 05:35:33;;;;;;;2.13;1.92;;;;;;;;;;2071251;28;20030;-79
2023/03/12 05:36:53;;;;;;;2.67;1.70;;;;;;;;;;2074127;28;20034;-81
2023/03/12 05:38:12;;;;;;;2.03;1.80;;;;;;;;;;2071967;28;20108;-82
2023/03/12 05:39:30;;;;;;;2.65;1.77;;;;;;;;;;2078615;28;20022;-80
2023/03/12 05:40:52;;;;;;;2.50;2.13;;;;;;;;;;2078873;28;20022;-81
2023/03/12 05:42:14;;;;;;;2.38;1.90;;;;;;;;;;2078684;28;20395;-81
2023/03/12 05:43:33;;;;;;;1.95;1.75;;;;;;;;;;2082977;28;20481;-80
2023/03/12 05:44:52;;;;;;;1.90;1.70;;;;;;;;;;2073442;28;20022;-82
2023/03/12 05:46:11;;;;;;;2.78;1.67;;;;;;;;;;2072515;28;20029;-83
2023/03/12 05:47:30;;;;;;;2.53;1.90;;;;;;;;;;2074675;28;20037;-82
2023/03/12 05:48:49;;;;;;;1.80;1.42;;;;;;;;;;2071514;28;20117;-83
2023/03/12 05:50:09;;;;;;;4.25;1.70;;;;;;;;;;2071436;28;20367;-82
2023/03/12 05:51:28;;;;;;;4.07;1.98;;;;;;;;;;2072543;28;20036;-82
2023/03/12 05:52:47;;;;;;;2.05;1.63;;;;;;;;;;2074114;28;20026;-81
2023/03/12 05:54:06;;;;;;;3.13;1.45;;;;;;;;;;2078764;28;20084;-82
2023/03/12 05:55:25;;;;;;;2.05;1.90;;;;;;;;;;2080318;28;20025;-83
2023/03/12 05:56:44;;;;;;;2.08;1.40;;;;;;;;;;2079771;28;20120;-81
2023/03/12 05:58:04;;;;;;;4.65;1.70;;;;;;;;;;2080183;28;20045;-82
2023/03/12 05:59:23;;;;;;;2.38;1.73;;;;;;;;;;2074604;28;20105;-82
2023/03/12 06:00:43;;;;;;;3.67;1.88;;;;;;;;;;2075984;28;20029;-82
2023/03/12 06:02:03;;;;;;;2.15;1.50;;;;;;;;;;2082810;28;20021;-85
2023/03/12 06:03:22;;;;;;;3.78;1.90;;;;;;;;;;2076636;28;20100;-84
2023/03/12 06:04:41;;;;;;;4.50;1.75;;;;;;;;;;2074245;28;20491;-82
2023/03/12 06:06:01;;;;;;;1.80;1.40;;;;;;;;;;2071497;28;20029;-84
2023/03/12 06:07:20;;;;;;;1.80;1.50;;;;;;;;;;2074962;28;20108;-84
2023/03/12 06:08:38;;;;;;;5.60;1.50;;;;;;;;;;2080768;28;20022;-83
2023/03/12 06:09:58;;;;;;;3.17;1.30;;;;;;;;;;2075189;28;20041;-84
2023/03/12 06:11:18;;;;;;;7.80;1.25;;;;;;;;;;2071388;28;20551;-82
2023/03/12 06:12:37;;;;;;;6.40;1.52;;;;;;;;;;2073041;28;20158;-82
2023/03/12 06:13:56;;;;;;;4.35;1.50;;;;;;;;;;2070461;28;20429;-83
2023/03/12 06:15:15;;;;;;;2.15;1.95;;;;;;;;;;2078763;28;20071;-81
2023/03/12 06:16:34;;;;;;;2.63;1.73;;;;;;;;;;2081972;28;20509;-81
2023/03/12 06:17:53;;;;;;;2.00;1.70;;;;;;;;;;2081779;28;20018;-81
2023/03/12 06:19:13;;;;;;;1.25;1.15;;;;;;;;;;2079423;28;20495;-85
2023/03/12 06:20:32;;;;;;;1.77;1.50;;;;;;;;;;2074360;28;20508;-81
2023/03/12 06:21:51;;;;;;;6.82;1.70;;;;;;;;;;2070945;28;20037;-82
2023/03/12 06:23:10;;;;;;;3.20;1.60;;;;;;;;;;2077175;28;20025;-82
2023/03/12 06:24:29;;;;;;;4.25;1.60;;;;;;;;;;2072664;28;20026;-83
2023/03/12 06:25:48;;;;;;;2.70;1.50;;;;;;;;;;2071589;28;20022;-81
2023/03/12 06:27:07;;;;;;;1.80;1.38;;;;;;;;;;2077981;28;20506;-81
2023/03/12 06:28:26;;;;;;;1.75;1.60;;;;;;;;;;2080283;28;20025;-83
2023/03/12 06:29:46;;;;;;;4.20;1.70;;;;;;;;;;2080378;28;20172;-83
2023/03/12 06:31:05;;;;;;;3.03;1.40;;;;;;;;;;2080608;28;20021;-84
2023/03/12 06:32:24;;;;;;;3.28;1.17;;;;;;;;;;2080018;28;20046;-83
2023/03/12 06:33:44;;;;;;;4.10;1.45;;;;;;;;;;2075553;28;20038;-84
2023/03/12 06:35:04;;;;;;;4.22;1.52;;;;;;;;;;2077984;28;20029;-83
2023/03/12 06:36:24;;;;;;;3.25;1.40;;;;;;;;;;2073212;28;20025;-86
2023/03/12 06:37:43;;;;;;;1.83;1.25;;;;;;;;;;2077841;28;20033;-82
2023/03/12 06:39:05;;;;;;;1.83;1.50;;;;;;;;;;2071093;28;20037;-82
2023/03/12 06:40:23;;;;;;;4.15;1.77;;;;;;;;;;2071777;28;20018;-84
2023/03/12 06:41:42;;;;;;;1.40;1.30;;;;;;;;;;2076583;28;20030;-84
2023/03/12 06:43:01;;;;;;;3.08;1.40;;;;;;;;;;2080807;28;20034;-85
2023/03/12 06:44:20;;;;;;;1.40;1.20;;;;;;;;;;2072373;28;20482;-86
2023/03/12 06:45:40;;;;;;;1.48;1.08;;;;;;;;;;2069884;28;20116;-86
2023/03/12 06:46:59;;;;;;;3.40;1.55;;;;;;;;;;2078304;28;20037;-83
2023/03/12 06:48:18;;;;;;;1.55;1.40;;;;;;;;;;2072348;28;20030;-83
2023/03/12 06:49:37;;;;;;;5.28;1.70;;;;;;;;;;2072391;28;20033;-81
2023/03/12 06:50:57;;;;;;;3.67;1.27;;;;;;;;;;2074154;28;20125;-83
2023/03/12 06:52:15;;;;;;;3.28;1.02;;;;;;;;;;2075759;28;20160;-79
2023/03/12 06:53:34;;;;;;;1.35;1.20;;;;;;;;;;2074479;28;20041;-80
2023/03/12 06:54:53;;;;;;;3.22;1.20;;;;;;;;;;2073357;28;20030;-84
2023/03/12 06:56:12;;;;;;;1.40;1.20;;;;;;;;;;2075412;28;20037;-82
2023/03/12 06:57:31;;;;;;;1.17;0.82;;;;;;;;;;2080389;28;20030;-82
2023/03/12 06:58:51;;;;;;;3.60;1.05;;;;;;;;;;2074888;28;20014;-79
2023/03/12 07:00:11;;;;;;;1.85;1.30;;;;;;;;;;2071531;28;20046;-80
2023/03/12 07:01:30;;;;;;;2.13;1.02;;;;;;;;;;2080324;28;20025;-80
2023/03/12 07:02:48;;;;;;;1.17;1.08;;;;;;;;;;2079754;28;20442;-80
2023/03/12 07:04:07;;;;;;;1.42;1.15;;;;;;;;;;2079932;28;20037;-80
2023/03/12 07:05:27;;;;;;;3.08;1.00;;;;;;;;;;2080742;28;20038;-80
2023/03/12 07:06:50;;;;;;;2.15;1.17;;;;;;;;;;2071501;28;20038;-78
2023/03/12 07:08:09;;;;;;;3.28;1.08;;;;;;;;;;2072468;28;20045;-78
2023/03/12 07:09:28;;;;;;;1.58;1.17;;;;;;;;;;2067582;28;20026;-78
2023/03/12 07:10:47;;;;;;;1.42;1.13;;;;;;;;;;2069434;28;20057;-79
2023/03/12 07:12:06;;;;;;;1.30;1.10;;;;;;;;;;2073358;28;20018;-78
2023/03/12 07:13:26;;;;;;;1.38;1.27;;;;;;;;;;2070542;28;20450;-78
2023/03/12 07:14:45;;;;;;;2.22;1.20;;;;;;;;;;2076233;28;20109;-78
2023/03/12 07:16:04;;;;;;;1.08;1.00;;;;;;;;;;2073356;28;20030;-78
2023/03/12 07:17:24;;;;;;;1.85;1.20;;;;;;;;;;2077056;28;20387;-78
2023/03/12 07:18:43;;;;;;;1.23;1.00;;;;;;;;;;2079944;28;20034;-78
2023/03/12 07:20:03;;;;;;;4.55;1.30;;;;;;;;;;2078254;28;20018;-77
2023/03/12 07:21:24;;;;;;;1.27;1.17;;;;;;;;;;2078756;28;20029;-80
2023/03/12 07:22:44;;;;;;;1.90;1.20;;;;;;;;;;2073353;28;20602;-79
2023/03/12 07:24:05;;;;;;;1.63;0.90;;;;;;;;;;2075113;28;20034;-78
2023/03/12 07:25:25;;;;;;;1.15;1.05;;;;;;;;;;2080550;28;20021;-78
2023/03/12 07:26:44;;;;;;;5.75;1.10;;;;;;;;;;2081712;28;20294;-79
2023/03/12 07:28:04;;;;;;;1.55;0.90;;;;;;;;;;2074385;28;20049;-79
2023/03/12 07:29:23;;;;;;;0.75;0.75;;;;;;;;;;2075801;28;20116;-79
2023/03/12 07:30:46;;;;;;;0.70;0.68;;;;;;;;;;2076904;28;20034;-79
2023/03/12 07:32:05;;;;;;;0.80;0.80;;;;;;;;;;2071959;28;20050;-79
2023/03/12 07:33:24;;;;;;;1.58;0.90;;;;;;;;;;2077895;28;20076;-79
2023/03/12 07:34:43;;;;;;;0.90;0.90;;;;;;;;;;2082252;28;20112;-79
2023/03/12 07:36:03;;;;;;;3.33;1.15;;;;;;;;;;2075695;28;20030;-79
2023/03/12 07:37:22;;;;;;;2.40;0.82;;;;;;;;;;2081634;28;20021;-77
2023/03/12 07:38:41;;;;;;;1.33;1.00;;;;;;;;;;2080509;28;20026;-78
2023/03/12 07:40:00;;;;;;;1.50;1.20;;;;;;;;;;2083387;28;20471;-77
2023/03/12 07:41:19;;;;;;;1.38;1.05;;;;;;;;;;2073538;28;20570;-78
2023/03/12 07:42:38;;;;;;;2.60;1.00;;;;;;;;;;2079047;28;20026;-78
2023/03/12 07:43:57;;;;;;;2.08;1.00;;;;;;;;;;2081347;28;20020;-77
2023/03/12 07:45:16;;;;;;;3.70;1.15;;;;;;;;;;2080040;28;20029;-77
2023/03/12 07:46:35;;;;;;;2.83;1.52;;;;;;;;;;2081827;28;20029;-77
2023/03/12 07:47:55;;;;;;;1.35;1.05;;;;;;;;;;2073139;28;20030;-77
2023/03/12 07:49:13;;;;;;;1.90;0.93;;;;;;;;;;2070311;28;20029;-77
2023/03/12 07:50:32;;;;;;;0.90;0.80;;;;;;;;;;2078121;28;20033;-77
2023/03/12 07:51:52;;;;;;;3.55;0.90;;;;;;;;;;2081289;28;20398;-78
2023/03/12 07:53:11;;;;;;;0.75;0.75;;;;;;;;;;2072975;28;20061;-77
2023/03/12 07:54:30;;;;;;;2.63;1.00;;;;;;;;;;2071017;28;20030;-79
2023/03/12 07:55:49;;;;;;;3.50;0.82;;;;;;;;;;2073042;28;20033;-78
2023/03/12 07:57:08;;;;;;;1.80;1.23;;;;;;;;;;2078726;28;20030;-77
2023/03/12 07:58:27;;;;;;;2.85;1.10;;;;;;;;;;2081256;28;20037;-78